Time;durP1;ratioP1;P1;durP2;ratioP2;P2;SDS_P1;SDS_P2;PMS_P1;PMS_P2;Temp;Humidity;BMP_temperature;BMP_pressure;BME280_temperature;BME280_humidity;BME280_pressure;Samples;Min_cycle;Max_cycle;Signal;HPM_P1;HPM_P2
2021/04/12 00:00:12;;;;;;;10.27;4.27;;;12.60;74.00;;;;;;4945378;28;20291;-71
2021/04/12 00:02:47;;;;;;;8.57;4.03;;;12.50;74.40;;;;;;4937520;28;20677;-71
2021/04/12 00:05:24;;;;;;;6.83;4.27;;;12.50;74.80;;;;;;4947699;28;20670;-71
2021/04/12 00:07:58;;;;;;;7.83;3.97;;;12.40;75.30;;;;;;4934083;29;20198;-71
2021/04/12 00:10:31;;;;;;;13.07;5.50;;;12.40;75.90;;;;;;4931646;29;20208;-71
2021/04/12 00:13:03;;;;;;;12.73;5.60;;;12.40;76.70;;;;;;4938450;28;21164;-70
2021/04/12 00:15:34;;;;;;;8.23;4.70;;;12.40;77.50;;;;;;4939611;28;20217;-70
2021/04/12 00:18:06;;;;;;;9.77;4.40;;;12.30;77.80;;;;;;4934056;28;20214;-71
2021/04/12 00:20:39;;;;;;;9.20;5.10;;;12.30;78.40;;;;;;4935093;29;20232;-71
2021/04/12 00:23:13;;;;;;;11.63;5.90;;;12.20;79.00;;;;;;4923516;29;20207;-71
2021/04/12 00:25:46;;;;;;;10.77;5.07;;;12.20;80.30;;;;;;4932527;29;20189;-71
2021/04/12 00:28:16;;;;;;;6.93;3.93;;;12.10;81.00;;;;;;4932333;29;20593;-70
2021/04/12 00:30:49;;;;;;;7.13;4.20;;;12.10;81.50;;;;;;4933505;29;20736;-70
2021/04/12 00:33:21;;;;;;;9.00;3.93;;;12.10;81.90;;;;;;4950078;28;20624;-70
2021/04/12 00:35:53;;;;;;;5.53;3.70;;;12.00;82.70;;;;;;4940359;28;20240;-70
2021/04/12 00:38:25;;;;;;;4.80;3.10;;;12.00;83.40;;;;;;4935709;28;20204;-70
2021/04/12 00:41:00;;;;;;;5.77;3.63;;;11.90;83.90;;;;;;4930426;29;20346;-70
2021/04/12 00:43:32;;;;;;;7.80;3.73;;;11.90;84.60;;;;;;4932323;29;20633;-70
2021/04/12 00:46:27;;;;;;;6.27;4.03;;;11.90;85.30;;;;;;4924597;29;20288;-70
2021/04/12 00:49:35;;;;;;;8.00;4.37;;;11.90;86.30;;;;;;4935364;29;20308;-71
2021/04/12 00:52:19;;;;;;;5.83;3.63;;;11.80;87.10;;;;;;4879421;29;20257;-71
2021/04/12 00:54:59;;;;;;;6.57;3.40;;;11.80;87.70;;;;;;4894237;29;20225;-71
2021/04/12 00:57:48;;;;;;;8.73;3.53;;;11.80;88.40;;;;;;4887904;29;20657;-70
2021/04/12 01:00:23;;;;;;;9.00;4.57;;;11.70;88.90;;;;;;4880179;29;20671;-71
2021/04/12 01:03:01;;;;;;;9.13;3.93;;;11.70;89.70;;;;;;4892256;29;20584;-70
2021/04/12 01:05:45;;;;;;;6.77;3.93;;;11.70;90.10;;;;;;4888443;29;20215;-69
2021/04/12 01:08:48;;;;;;;6.67;4.20;;;11.70;90.40;;;;;;4891115;29;20256;-70
2021/04/12 01:11:47;;;;;;;12.60;5.87;;;11.70;91.00;;;;;;4885396;29;20757;-70
2021/04/12 01:14:46;;;;;;;10.27;5.00;;;11.70;91.30;;;;;;4897058;29;20207;-71
2021/04/12 01:17:37;;;;;;;10.07;4.83;;;11.70;91.50;;;;;;4890865;29;20661;-71
2021/04/12 01:20:55;;;;;;;9.13;4.50;;;11.70;92.10;;;;;;4897199;29;20232;-70
2021/04/12 01:24:00;;;;;;;8.17;4.37;;;11.60;92.00;;;;;;4890528;29;20256;-70
2021/04/12 01:27:09;;;;;;;24.13;8.57;;;11.50;92.30;;;;;;4890063;29;20205;-71
2021/04/12 01:30:18;;;;;;;8.30;4.57;;;11.60;93.30;;;;;;4913204;29;20231;-71
2021/04/12 01:33:16;;;;;;;7.97;4.43;;;11.50;93.50;;;;;;4946313;28;20220;-72
2021/04/12 01:36:27;;;;;;;8.37;4.57;;;11.50;93.70;;;;;;4932908;28;20230;-71
2021/04/12 01:39:06;;;;;;;7.90;3.67;;;11.50;93.90;;;;;;4849068;29;20242;-70
2021/04/12 01:41:46;;;;;;;8.40;4.10;;;11.50;94.10;;;;;;4854106;29;20641;-71
2021/04/12 01:44:38;;;;;;;6.73;3.40;;;11.50;94.20;;;;;;4832030;29;20478;-71
2021/04/12 01:47:37;;;;;;;5.73;3.13;;;11.40;94.40;;;;;;4844894;29;20452;-70
2021/04/12 01:50:28;;;;;;;4.03;2.87;;;11.50;94.70;;;;;;4826769;29;20203;-70
2021/04/12 01:53:39;;;;;;;5.10;2.77;;;11.40;94.90;;;;;;4860383;29;20247;-71
2021/04/12 01:56:26;;;;;;;6.30;2.50;;;11.40;95.10;;;;;;4829163;29;20320;-71
2021/04/12 01:59:02;;;;;;;6.30;3.60;;;11.40;95.40;;;;;;4850901;29;20245;-71
2021/04/12 02:01:53;;;;;;;5.97;3.40;;;11.40;95.70;;;;;;4853479;29;20241;-70
2021/04/12 02:04:35;;;;;;;4.23;2.80;;;11.40;95.90;;;;;;4864326;29;20209;-71
2021/04/12 02:07:27;;;;;;;4.47;2.90;;;11.40;96.10;;;;;;4852123;29;20306;-71
2021/04/12 02:10:09;;;;;;;5.30;2.73;;;11.40;96.30;;;;;;4838077;29;20288;-70
2021/04/12 02:12:55;;;;;;;4.23;2.60;;;11.30;96.40;;;;;;4847138;29;20320;-71
2021/04/12 02:15:28;;;;;;;3.30;2.40;;;11.30;96.60;;;;;;4926184;29;20276;-71
2021/04/12 02:18:17;;;;;;;7.50;3.73;;;11.30;96.90;;;;;;4931128;29;20212;-70
2021/04/12 02:20:56;;;;;;;6.17;3.80;;;11.30;97.50;;;;;;4925889;29;20295;-71
2021/04/12 02:23:44;;;;;;;6.40;3.83;;;11.20;97.90;;;;;;4930739;29;20292;-70
2021/04/12 02:26:26;;;;;;;6.40;3.50;;;11.10;98.30;;;;;;4928588;29;20203;-71
2021/04/12 02:29:20;;;;;;;5.57;3.50;;;11.10;98.60;;;;;;4931231;28;20563;-70
2021/04/12 02:31:51;;;;;;;8.20;3.90;;;11.10;98.80;;;;;;4930365;29;20205;-70
2021/04/12 02:34:36;;;;;;;5.73;3.67;;;11.10;99.10;;;;;;4929464;29;20241;-71
2021/04/12 02:37:15;;;;;;;5.53;3.33;;;11.00;99.20;;;;;;4944439;28;20230;-70
2021/04/12 02:39:54;;;;;;;9.57;3.50;;;11.00;99.50;;;;;;4929907;29;20677;-70
2021/04/12 02:42:34;;;;;;;4.80;3.17;;;11.00;99.60;;;;;;4930017;29;20252;-71
2021/04/12 02:45:14;;;;;;;5.83;3.53;;;11.00;99.80;;;;;;4932544;29;20257;-71
2021/04/12 02:48:00;;;;;;;5.60;3.10;;;10.90;99.90;;;;;;4931180;29;20202;-69
2021/04/12 02:50:47;;;;;;;5.07;3.13;;;10.90;99.90;;;;;;4929612;29;20198;-70
2021/04/12 02:53:46;;;;;;;5.20;3.27;;;10.90;99.90;;;;;;4936788;28;20213;-70
2021/04/12 02:56:29;;;;;;;4.93;2.63;;;10.80;99.90;;;;;;4920384;29;20261;-70
2021/04/12 02:59:12;;;;;;;5.50;3.00;;;10.90;99.90;;;;;;4944235;28;20698;-70
2021/04/12 03:02:02;;;;;;;5.27;2.73;;;10.90;99.90;;;;;;4931434;29;20208;-70
2021/04/12 03:04:46;;;;;;;4.57;2.60;;;10.80;99.90;;;;;;4933354;29;20213;-70
2021/04/12 03:07:39;;;;;;;4.30;2.77;;;10.90;99.90;;;;;;4950783;28;20339;-69
2021/04/12 03:10:28;;;;;;;5.87;3.00;;;10.80;99.90;;;;;;4950805;28;20678;-70
2021/04/12 03:13:14;;;;;;;2.70;2.30;;;10.80;99.90;;;;;;4930072;29;20199;-70
2021/04/12 03:16:09;;;;;;;3.80;2.67;;;10.80;99.90;;;;;;4934398;29;20245;-71
2021/04/12 03:19:08;;;;;;;4.17;2.50;;;10.80;99.90;;;;;;4923597;29;20327;-70
2021/04/12 03:22:01;;;;;;;4.33;2.57;;;10.80;99.90;;;;;;4933137;29;20281;-70
2021/04/12 03:24:31;;;;;;;7.50;3.00;;;10.80;99.90;;;;;;4936075;29;20281;-70
2021/04/12 03:27:31;;;;;;;5.07;3.50;;;10.80;99.90;;;;;;4934114;29;20237;-70
2021/04/12 03:30:14;;;;;;;4.97;3.00;;;10.70;99.90;;;;;;4858946;29;20399;-70
2021/04/12 03:33:14;;;;;;;3.90;2.90;;;10.70;99.90;;;;;;4875376;29;20224;-70
2021/04/12 03:35:53;;;;;;;3.27;2.43;;;10.70;99.90;;;;;;4856415;29;20306;-70
2021/04/12 03:38:29;;;;;;;9.37;3.47;;;10.70;99.90;;;;;;4857136;29;20253;-70
2021/04/12 03:41:18;;;;;;;7.67;3.93;;;10.70;99.90;;;;;;4855871;29;20245;-70
2021/04/12 03:44:00;;;;;;;8.93;4.17;;;10.60;99.90;;;;;;4852908;29;20243;-70
2021/04/12 03:46:49;;;;;;;7.57;3.77;;;10.60;99.90;;;;;;4855032;29;20344;-70
2021/04/12 03:49:42;;;;;;;9.90;4.20;;;10.70;99.90;;;;;;4849154;29;20211;-70
2021/04/12 03:52:45;;;;;;;9.63;3.80;;;10.70;99.90;;;;;;4858314;29;20259;-70
2021/04/12 03:55:27;;;;;;;10.93;3.83;;;10.60;99.90;;;;;;4855270;29;20303;-70
2021/04/12 03:58:27;;;;;;;8.37;3.17;;;10.60;99.90;;;;;;4854268;29;20233;-71
2021/04/12 04:01:33;;;;;;;5.83;3.10;;;10.60;99.90;;;;;;4847198;29;20221;-70
2021/04/12 04:04:34;;;;;;;7.77;3.27;;;10.60;99.90;;;;;;4846224;29;20239;-70
2021/04/12 04:07:34;;;;;;;5.93;3.20;;;10.60;99.90;;;;;;4865294;29;20564;-70
2021/04/12 04:10:29;;;;;;;6.67;3.80;;;10.60;99.90;;;;;;4876207;29;20203;-70
2021/04/12 04:13:19;;;;;;;7.10;3.50;;;10.60;99.90;;;;;;4914045;29;20249;-70
2021/04/12 04:16:04;;;;;;;5.50;3.37;;;10.60;99.90;;;;;;4897060;29;20227;-70
2021/04/12 04:18:37;;;;;;;6.20;2.93;;;10.50;99.90;;;;;;4906256;29;20311;-70
2021/04/12 04:21:29;;;;;;;6.10;3.00;;;10.50;99.90;;;;;;4911350;29;20201;-70
2021/04/12 04:24:29;;;;;;;4.40;2.97;;;10.60;99.90;;;;;;4909607;29;20221;-70
2021/04/12 04:27:18;;;;;;;3.17;2.60;;;10.50;99.90;;;;;;4854900;29;20299;-70
2021/04/12 04:30:13;;;;;;;5.70;3.00;;;10.60;99.90;;;;;;4830199;29;20220;-70
2021/04/12 04:33:05;;;;;;;5.57;2.93;;;10.60;99.90;;;;;;4827000;29;20223;-70
2021/04/12 04:35:54;;;;;;;7.07;3.47;;;10.60;99.90;;;;;;4836104;29;20328;-70
2021/04/12 04:38:57;;;;;;;5.23;3.20;;;10.60;99.90;;;;;;4838412;29;20318;-70
2021/04/12 04:41:50;;;;;;;5.47;3.43;;;10.60;99.90;;;;;;4830721;29;20207;-70
2021/04/12 04:44:48;;;;;;;10.37;4.23;;;10.70;99.90;;;;;;4826967;29;20257;-70
2021/04/12 04:47:50;;;;;;;5.70;3.53;;;10.70;99.90;;;;;;4837308;29;20711;-70
2021/04/12 04:50:51;;;;;;;5.97;3.40;;;10.60;99.90;;;;;;4800685;29;20328;-71
2021/04/12 04:53:35;;;;;;;4.83;3.30;;;10.70;99.90;;;;;;4801350;29;20290;-70
2021/04/12 04:56:14;;;;;;;6.40;3.70;;;10.70;99.90;;;;;;4799662;29;21062;-71
2021/04/12 04:58:58;;;;;;;7.33;3.10;;;10.70;99.90;;;;;;4800334;29;20832;-71
2021/04/12 05:01:45;;;;;;;6.43;3.50;;;10.80;99.90;;;;;;4800735;29;20278;-71
2021/04/12 05:04:35;;;;;;;3.37;2.40;;;10.80;99.90;;;;;;4855692;29;20620;-71
2021/04/12 05:07:34;;;;;;;4.97;3.00;;;10.80;99.90;;;;;;4853667;29;20271;-71
2021/04/12 05:10:09;;;;;;;4.23;2.70;;;10.90;99.90;;;;;;4817894;29;20303;-70
2021/04/12 05:12:54;;;;;;;5.10;3.20;;;10.90;99.90;;;;;;4817333;29;20239;-70
2021/04/12 05:16:03;;;;;;;3.53;3.00;;;11.00;99.90;;;;;;4809640;29;20595;-71
2021/04/12 05:19:00;;;;;;;4.40;2.83;;;11.00;99.90;;;;;;4755453;30;20302;-70
2021/04/12 05:21:39;;;;;;;4.60;2.77;;;11.00;99.90;;;;;;4747383;30;20789;-70
2021/04/12 05:24:39;;;;;;;5.53;3.00;;;11.00;99.90;;;;;;4748550;30;20220;-70
2021/04/12 05:27:38;;;;;;;4.87;3.00;;;11.10;99.90;;;;;;4758540;29;20253;-71
2021/04/12 05:30:31;;;;;;;5.23;3.13;;;11.20;99.90;;;;;;4793660;29;20695;-70
2021/04/12 05:33:07;;;;;;;4.30;2.60;;;11.30;99.90;;;;;;4785453;29;20303;-70
2021/04/12 05:36:06;;;;;;;4.63;3.03;;;11.30;99.90;;;;;;4791663;29;20653;-70
2021/04/12 05:39:08;;;;;;;6.40;2.37;;;11.40;99.90;;;;;;4794689;29;20212;-69
2021/04/12 05:41:51;;;;;;;3.07;2.43;;;11.60;99.90;;;;;;4748749;30;20312;-70
2021/04/12 05:45:05;;;;;;;4.80;2.73;;;11.70;99.90;;;;;;4769686;30;20367;-70
2021/04/12 05:48:05;;;;;;;4.23;2.63;;;11.80;99.90;;;;;;4712043;30;20890;-71
2021/04/12 05:50:59;;;;;;;4.03;2.97;;;12.00;99.90;;;;;;4721834;30;20218;-71
2021/04/12 05:54:08;;;;;;;7.13;2.93;;;12.20;99.90;;;;;;4662062;30;20262;-71
2021/04/12 05:57:00;;;;;;;7.27;3.17;;;12.60;99.90;;;;;;4709343;30;20409;-70
2021/04/12 05:59:41;;;;;;;4.53;2.80;;;12.90;99.90;;;;;;4694941;30;20222;-70
2021/04/12 06:02:24;;;;;;;6.73;3.47;;;13.20;99.90;;;;;;4704905;30;20249;-71
2021/04/12 06:05:02;;;;;;;5.17;3.40;;;13.40;99.50;;;;;;4727389;30;20221;-70
2021/04/12 06:08:02;;;;;;;4.47;3.27;;;13.60;99.20;;;;;;4728479;30;20209;-71
2021/04/12 06:10:45;;;;;;;3.87;3.20;;;13.80;98.90;;;;;;4727586;30;20255;-71
2021/04/12 06:14:01;;;;;;;5.33;3.23;;;14.00;98.70;;;;;;4727621;30;20214;-71
2021/04/12 06:17:01;;;;;;;8.13;5.10;;;14.40;98.20;;;;;;4727138;30;20762;-71
2021/04/12 06:20:03;;;;;;;9.97;6.80;;;14.80;97.70;;;;;;4796569;29;20235;-71
2021/04/12 06:23:24;;;;;;;15.50;8.10;;;15.10;97.20;;;;;;4798483;29;20321;-70
2021/04/12 06:26:44;;;;;;;9.93;6.30;;;15.40;96.80;;;;;;4847560;29;20297;-71
2021/04/12 06:29:31;;;;;;;10.07;6.20;;;15.80;96.30;;;;;;4796598;29;20414;-72
2021/04/12 06:32:31;;;;;;;8.17;5.47;;;15.80;95.80;;;;;;4821644;29;20248;-69
2021/04/12 06:35:31;;;;;;;9.10;5.50;;;16.00;95.60;;;;;;4834648;29;20310;-70
2021/04/12 06:38:18;;;;;;;9.47;6.20;;;16.20;95.20;;;;;;4834461;29;20536;-71
2021/04/12 06:41:14;;;;;;;11.03;6.80;;;16.30;94.80;;;;;;4837075;29;20216;-68
2021/04/12 06:44:28;;;;;;;12.57;6.87;;;16.60;94.50;;;;;;4831838;29;20295;-67
2021/04/12 06:47:26;;;;;;;11.37;6.70;;;17.50;93.60;;;;;;4836719;29;20216;-68
2021/04/12 06:50:29;;;;;;;12.60;7.17;;;17.80;91.90;;;;;;4822087;29;20581;-67
2021/04/12 06:53:42;;;;;;;11.57;6.77;;;17.60;91.30;;;;;;4833718;29;20220;-67
2021/04/12 06:57:02;;;;;;;10.27;6.00;;;17.50;91.30;;;;;;4825289;29;20308;-68
2021/04/12 07:00:26;;;;;;;8.83;5.80;;;17.20;91.40;;;;;;4830092;29;20293;-67
2021/04/12 07:03:30;;;;;;;16.83;9.17;;;16.90;91.70;;;;;;4821474;29;20296;-68
2021/04/12 07:06:28;;;;;;;16.43;9.77;;;16.60;91.90;;;;;;4845295;29;20300;-68
2021/04/12 07:09:23;;;;;;;19.03;10.07;;;16.20;92.20;;;;;;4860051;29;20218;-67
2021/04/12 07:12:39;;;;;;;14.70;8.13;;;15.70;92.70;;;;;;4866131;29;20214;-67
2021/04/12 07:15:55;;;;;;;17.60;9.30;;;15.30;93.50;;;;;;4836781;29;20219;-68
2021/04/12 07:19:13;;;;;;;17.67;7.63;;;14.90;93.90;;;;;;4834297;29;20224;-68
2021/04/12 07:22:15;;;;;;;9.53;5.43;;;14.80;94.20;;;;;;4765477;29;20547;-68
2021/04/12 07:25:19;;;;;;;13.30;7.00;;;14.80;94.20;;;;;;4724652;30;20382;-67
2021/04/12 07:28:20;;;;;;;13.80;7.40;;;15.10;93.80;;;;;;4734282;30;20215;-67
2021/04/12 07:31:16;;;;;;;11.97;7.00;;;15.30;93.20;;;;;;4743696;30;20807;-68
2021/04/12 07:34:02;;;;;;;10.10;6.60;;;15.10;92.90;;;;;;4746782;30;20465;-68
2021/04/12 07:36:59;;;;;;;8.70;5.30;;;14.90;93.20;;;;;;4747289;30;20329;-68
2021/04/12 07:40:24;;;;;;;7.00;4.90;;;14.80;93.30;;;;;;4757161;30;20214;-68
2021/04/12 07:43:33;;;;;;;8.30;4.93;;;14.70;93.20;;;;;;4756993;30;20228;-67
2021/04/12 07:46:32;;;;;;;9.33;4.07;;;14.40;93.00;;;;;;4742632;30;20747;-67
2021/04/12 07:49:39;;;;;;;5.70;3.33;;;14.20;93.30;;;;;;4746209;30;20220;-67
2021/04/12 07:52:31;;;;;;;3.87;2.97;;;14.10;93.70;;;;;;4781952;29;20208;-68
2021/04/12 07:55:33;;;;;;;2.43;2.23;;;14.00;93.70;;;;;;4784592;29;20307;-67
2021/04/12 07:58:36;;;;;;;2.10;1.90;;;13.90;93.80;;;;;;4774538;29;20303;-66
2021/04/12 08:01:47;;;;;;;3.20;2.60;;;13.90;93.90;;;;;;4778859;29;20606;-66
2021/04/12 08:04:53;;;;;;;2.07;1.90;;;13.90;93.90;;;;;;4753847;30;20370;-66
2021/04/12 08:07:55;;;;;;;2.13;1.80;;;13.90;93.90;;;;;;4758585;30;20796;-67
2021/04/12 08:10:54;;;;;;;2.57;1.80;;;13.90;94.00;;;;;;4758682;30;20322;-66
2021/04/12 08:14:02;;;;;;;4.20;2.27;;;13.80;93.90;;;;;;4752391;30;20322;-66
2021/04/12 08:17:12;;;;;;;2.23;2.00;;;13.80;93.90;;;;;;4759999;30;20381;-66
2021/04/12 08:20:26;;;;;;;3.23;2.33;;;13.70;93.90;;;;;;4758324;30;20361;-66
2021/04/12 08:23:35;;;;;;;7.23;3.40;;;13.70;94.00;;;;;;4783295;29;20242;-66
2021/04/12 08:27:02;;;;;;;6.10;3.00;;;13.50;94.00;;;;;;4783297;29;20790;-66
2021/04/12 08:30:10;;;;;;;4.57;3.07;;;13.30;94.10;;;;;;4795861;29;20238;-66
2021/04/12 08:33:18;;;;;;;3.03;2.10;;;13.10;94.30;;;;;;4795275;29;20223;-66
2021/04/12 08:36:30;;;;;;;2.73;2.13;;;13.10;94.60;;;;;;4733849;30;20741;-67
2021/04/12 08:39:46;;;;;;;2.40;2.20;;;13.00;94.60;;;;;;4744512;30;20213;-66
2021/04/12 08:42:52;;;;;;;6.27;2.47;;;13.00;94.70;;;;;;4799990;29;20246;-65
2021/04/12 08:46:10;;;;;;;2.37;1.80;;;12.90;94.60;;;;;;4816996;29;20213;-68
2021/04/12 08:48:54;;;;;;;2.20;1.90;;;12.90;94.70;;;;;;4771554;30;20249;-68
2021/04/12 08:52:11;;;;;;;7.20;2.40;;;13.00;94.60;;;;;;4762646;30;20215;-66
2021/04/12 08:54:59;;;;;;;2.90;1.40;;;13.10;94.60;;;;;;4757419;30;20219;-66
2021/04/12 08:58:12;;;;;;;1.50;1.40;;;13.20;94.30;;;;;;4759653;30;20255;-67
2021/04/12 09:01:25;;;;;;;1.40;1.30;;;13.20;94.20;;;;;;4759775;30;20684;-66
2021/04/12 09:04:34;;;;;;;1.57;1.40;;;13.40;94.00;;;;;;4745473;30;20290;-66
2021/04/12 09:07:28;;;;;;;1.50;1.40;;;13.30;93.60;;;;;;4745703;30;20273;-66
2021/04/12 09:10:16;;;;;;;1.20;1.20;;;13.20;93.60;;;;;;4741306;30;20358;-66
2021/04/12 09:13:22;;;;;;;1.70;1.60;;;13.30;93.70;;;;;;4810303;29;20303;-66
2021/04/12 09:16:12;;;;;;;5.43;2.50;;;13.30;93.60;;;;;;4862741;29;20310;-66
2021/04/12 09:19:05;;;;;;;2.23;2.03;;;13.20;93.10;;;;;;4863893;29;20213;-66
2021/04/12 09:22:11;;;;;;;1.70;1.60;;;13.00;93.20;;;;;;5144177;27;20525;-67
2021/04/12 09:24:49;;;;;;;1.70;1.60;;;12.80;93.50;;;;;;5131668;27;20306;-67
2021/04/12 09:28:04;;;;;;;1.70;1.60;;;12.80;93.90;;;;;;5121060;27;20493;-66
2021/04/12 09:31:23;;;;;;;1.80;1.70;;;12.70;94.30;;;;;;5124763;27;20571;-67
2021/04/12 09:34:32;;;;;;;1.67;1.30;;;12.70;94.70;;;;;;5119962;27;20187;-67
2021/04/12 09:37:48;;;;;;;3.70;2.50;;;12.70;95.00;;;;;;5125668;27;20893;-67
2021/04/12 09:40:58;;;;;;;17.60;4.20;;;12.70;95.30;;;;;;5051718;28;20591;-67
2021/04/12 09:43:59;;;;;;;7.50;4.43;;;12.60;95.70;;;;;;4984601;28;20366;-68
2021/04/12 09:46:57;;;;;;;5.70;3.37;;;12.50;96.30;;;;;;4931885;28;20198;-68
2021/04/12 09:50:03;;;;;;;3.63;2.70;;;12.40;96.70;;;;;;4901870;29;20210;-67
2021/04/12 09:52:48;;;;;;;5.90;2.90;;;12.40;96.90;;;;;;4868895;29;20290;-67
2021/04/12 09:55:50;;;;;;;3.73;2.43;;;12.50;97.00;;;;;;4866355;29;20729;-67
2021/04/12 09:58:46;;;;;;;6.63;3.27;;;12.50;96.90;;;;;;4859635;29;20230;-67
2021/04/12 10:01:29;;;;;;;5.43;3.60;;;12.50;96.70;;;;;;4841446;29;20794;-67
2021/04/12 10:04:26;;;;;;;3.80;2.90;;;12.20;96.60;;;;;;4845754;29;20211;-67
2021/04/12 10:07:14;;;;;;;3.30;3.00;;;12.10;96.80;;;;;;4836035;29;20217;-67
2021/04/12 10:10:05;;;;;;;4.13;2.60;;;12.00;97.00;;;;;;4857312;29;20217;-67
2021/04/12 10:12:51;;;;;;;2.70;2.50;;;12.00;97.20;;;;;;4857573;29;20712;-67
2021/04/12 10:15:30;;;;;;;5.87;2.30;;;11.90;97.10;;;;;;4856856;29;20209;-67
2021/04/12 10:18:14;;;;;;;4.27;2.10;;;12.00;97.00;;;;;;4883624;29;20220;-67
2021/04/12 10:20:49;;;;;;;3.03;2.00;;;12.00;96.70;;;;;;4917583;29;20269;-67
2021/04/12 10:23:27;;;;;;;3.40;1.87;;;11.90;96.30;;;;;;4915382;29;20211;-67
2021/04/12 10:26:04;;;;;;;1.97;1.80;;;11.90;96.30;;;;;;4947800;28;20204;-67
2021/04/12 10:28:35;;;;;;;2.23;1.60;;;11.80;96.20;;;;;;5040468;28;20205;-66
2021/04/12 10:31:12;;;;;;;1.97;1.30;;;11.80;96.10;;;;;;5035665;28;20254;-66
2021/04/12 10:33:43;;;;;;;1.40;1.30;;;11.90;96.10;;;;;;5006516;28;20725;-65
2021/04/12 10:36:23;;;;;;;1.70;1.60;;;11.80;96.00;;;;;;5027038;28;20242;-66
2021/04/12 10:39:00;;;;;;;1.77;1.50;;;11.80;95.80;;;;;;5087072;27;20298;-66
2021/04/12 10:41:46;;;;;;;2.17;1.67;;;11.80;95.80;;;;;;5107288;27;20215;-66
2021/04/12 10:44:17;;;;;;;2.70;1.97;;;11.60;95.30;;;;;;5109270;27;20713;-66
2021/04/12 10:46:52;;;;;;;1.30;1.20;;;11.40;95.40;;;;;;5110965;27;20280;-65
2021/04/12 10:49:24;;;;;;;1.50;1.40;;;11.30;95.80;;;;;;5109849;27;20288;-66
2021/04/12 10:51:57;;;;;;;2.33;1.50;;;11.30;96.00;;;;;;5110633;27;20648;-67
2021/04/12 10:55:00;;;;;;;1.40;1.30;;;11.20;96.20;;;;;;5109903;27;20202;-67
2021/04/12 10:57:42;;;;;;;4.47;2.03;;;11.10;96.40;;;;;;5007708;28;20196;-67
2021/04/12 11:00:34;;;;;;;1.50;1.40;;;11.00;96.40;;;;;;5013733;28;20223;-67
2021/04/12 11:03:31;;;;;;;2.27;2.07;;;11.00;96.40;;;;;;4986405;28;20581;-67
2021/04/12 11:06:12;;;;;;;1.70;1.60;;;10.90;96.30;;;;;;4954409;28;20409;-67
2021/04/12 11:08:47;;;;;;;1.87;1.73;;;10.80;96.10;;;;;;4982505;28;20575;-66
2021/04/12 11:11:20;;;;;;;1.80;1.47;;;11.60;96.50;;;;;;4986615;28;20215;-67
2021/04/12 11:13:53;;;;;;;2.17;1.73;;;10.70;95.90;;;;;;4981136;28;20231;-67
2021/04/12 11:16:26;;;;;;;1.60;1.50;;;10.70;95.40;;;;;;4989495;28;20234;-66
2021/04/12 11:19:25;;;;;;;2.10;1.50;;;10.70;95.70;;;;;;4988337;28;20270;-67
2021/04/12 11:22:04;;;;;;;1.40;1.30;;;10.70;95.40;;;;;;4884497;29;20593;-67
2021/04/12 11:24:38;;;;;;;1.53;1.40;;;10.70;95.30;;;;;;4887757;29;20301;-67
2021/04/12 11:27:50;;;;;;;1.77;1.63;;;10.80;95.20;;;;;;4890688;29;20224;-66
2021/04/12 11:30:23;;;;;;;1.90;1.60;;;10.90;94.90;;;;;;4884870;29;20210;-66
2021/04/12 11:33:15;;;;;;;20.30;4.50;;;10.90;94.60;;;;;;4890277;29;20207;-66
2021/04/12 11:35:56;;;;;;;21.30;5.10;;;10.80;94.40;;;;;;4981445;28;20710;-66
2021/04/12 11:38:28;;;;;;;6.80;2.63;;;10.80;94.40;;;;;;4958044;28;20229;-67
2021/04/12 11:41:00;;;;;;;2.77;1.50;;;10.70;94.30;;;;;;5008794;28;20237;-67
2021/04/12 11:43:31;;;;;;;4.13;1.60;;;10.70;94.40;;;;;;5014913;28;20679;-66
2021/04/12 11:46:08;;;;;;;2.73;1.97;;;10.70;94.20;;;;;;5017393;28;20607;-66
2021/04/12 11:48:46;;;;;;;1.93;1.60;;;10.60;94.10;;;;;;5012531;28;20210;-66
2021/04/12 11:51:19;;;;;;;1.50;1.40;;;10.60;94.30;;;;;;5008719;28;20856;-66
2021/04/12 11:53:50;;;;;;;1.60;1.37;;;10.50;94.40;;;;;;5018521;28;20239;-66
2021/04/12 11:56:37;;;;;;;1.60;1.50;;;10.50;94.50;;;;;;5015832;28;20320;-67
2021/04/12 11:59:11;;;;;;;1.67;1.30;;;10.40;94.50;;;;;;5077276;27;20219;-67
2021/04/12 12:01:46;;;;;;;1.93;1.50;;;10.40;94.80;;;;;;5101001;27;20665;-66
2021/04/12 12:04:17;;;;;;;4.53;2.30;;;10.40;94.90;;;;;;5099794;28;20667;-67
2021/04/12 12:07:00;;;;;;;2.03;1.83;;;10.40;95.30;;;;;;5103609;27;20614;-67
2021/04/12 12:09:43;;;;;;;4.83;2.30;;;10.30;95.50;;;;;;5104331;27;20296;-67
2021/04/12 12:12:33;;;;;;;4.17;2.53;;;10.20;95.90;;;;;;5101308;28;20192;-66
2021/04/12 12:15:07;;;;;;;2.90;2.00;;;10.00;96.40;;;;;;5103817;28;20189;-67
2021/04/12 12:17:57;;;;;;;3.40;1.97;;;9.70;97.30;;;;;;5104152;27;20192;-67
2021/04/12 12:20:31;;;;;;;2.03;1.80;;;9.50;97.80;;;;;;5105989;28;20699;-67
2021/04/12 12:23:06;;;;;;;2.53;1.97;;;9.40;98.20;;;;;;5109352;27;20222;-67
2021/04/12 12:25:41;;;;;;;4.10;1.70;;;9.30;98.50;;;;;;5107763;28;20283;-67
2021/04/12 12:28:24;;;;;;;2.87;1.60;;;9.30;98.60;;;;;;5106713;28;20610;-67
2021/04/12 12:31:09;;;;;;;25.37;4.90;;;9.40;98.50;;;;;;5111080;27;20278;-67
2021/04/12 12:33:44;;;;;;;19.50;5.27;;;9.40;98.20;;;;;;5102757;27;20203;-67
2021/04/12 12:36:19;;;;;;;3.10;2.03;;;9.50;98.00;;;;;;5116100;27;20561;-67
2021/04/12 12:38:59;;;;;;;3.57;2.00;;;9.40;97.70;;;;;;5117424;27;20642;-67
2021/04/12 12:41:37;;;;;;;6.77;1.60;;;9.40;97.70;;;;;;5109240;27;20552;-67
2021/04/12 12:44:10;;;;;;;1.60;1.50;;;9.30;97.80;;;;;;5103269;27;20547;-67
2021/04/12 12:46:40;;;;;;;2.47;1.50;;;9.40;98.00;;;;;;5113600;27;20589;-67
2021/04/12 12:49:17;;;;;;;1.87;1.50;;;9.40;98.00;;;;;;5104750;28;20199;-68
2021/04/12 12:51:51;;;;;;;2.00;1.33;;;9.40;98.10;;;;;;5109796;27;20187;-68
2021/04/12 12:54:27;;;;;;;1.40;1.30;;;9.40;97.90;;;;;;5106956;27;20196;-68
2021/04/12 12:57:03;;;;;;;4.10;1.50;;;9.50;97.90;;;;;;5108107;28;20256;-68
2021/04/12 12:59:35;;;;;;;1.03;0.90;;;9.50;97.80;;;;;;5098446;28;20203;-68
2021/04/12 13:02:16;;;;;;;0.93;0.93;;;9.50;97.80;;;;;;5105328;27;20193;-67
2021/04/12 13:04:55;;;;;;;1.10;1.00;;;9.60;97.80;;;;;;5107531;28;20208;-68
2021/04/12 13:07:23;;;;;;;1.93;1.20;;;9.70;97.90;;;;;;5103075;28;20556;-68
2021/04/12 13:10:02;;;;;;;1.00;1.00;;;9.70;98.20;;;;;;5117322;27;20467;-68
2021/04/12 13:12:33;;;;;;;1.07;1.00;;;9.80;98.80;;;;;;5106661;27;20196;-68
2021/04/12 13:15:33;;;;;;;1.30;1.20;;;9.90;98.70;;;;;;5106952;28;20311;-67
2021/04/12 13:18:07;;;;;;;1.57;1.30;;;9.90;98.30;;;;;;5022103;28;20212;-67
2021/04/12 13:20:46;;;;;;;1.93;1.30;;;9.90;98.10;;;;;;5028163;28;20288;-68
2021/04/12 13:23:20;;;;;;;1.73;1.27;;;9.80;98.00;;;;;;5028913;28;20206;-66
2021/04/12 13:25:48;;;;;;;1.97;1.30;;;9.60;98.40;;;;;;5022306;28;20213;-67
2021/04/12 13:28:23;;;;;;;1.60;0.97;;;9.60;98.80;;;;;;5024473;28;20226;-69
2021/04/12 13:31:01;;;;;;;1.93;1.40;;;9.50;99.10;;;;;;5024460;28;20646;-67
2021/04/12 13:33:33;;;;;;;2.03;1.30;;;9.40;99.20;;;;;;5026064;28;20282;-68
2021/04/12 13:36:12;;;;;;;1.60;1.20;;;9.40;99.60;;;;;;5022287;28;20202;-70
2021/04/12 13:38:44;;;;;;;1.30;1.20;;;9.40;99.70;;;;;;5025296;28;20238;-73
2021/04/12 13:41:21;;;;;;;1.73;1.20;;;9.30;99.60;;;;;;5006359;28;20670;-70
2021/04/12 13:43:53;;;;;;;1.83;1.20;;;9.10;99.70;;;;;;5011496;28;20678;-69
2021/04/12 13:46:23;;;;;;;1.40;1.10;;;9.00;99.80;;;;;;5024174;28;20306;-69
2021/04/12 13:49:04;;;;;;;0.80;0.80;;;8.90;99.90;;;;;;5020175;28;20313;-68
2021/04/12 13:51:38;;;;;;;2.83;1.20;;;8.90;99.90;;;;;;5045166;28;20207;-69
2021/04/12 13:54:19;;;;;;;0.80;0.80;;;8.90;99.90;;;;;;5102030;28;20522;-69
2021/04/12 13:56:52;;;;;;;1.03;0.93;;;8.90;99.90;;;;;;5103585;28;20199;-69
2021/04/12 13:59:25;;;;;;;0.90;0.87;;;9.00;99.90;;;;;;5103597;28;20265;-69
2021/04/12 14:02:00;;;;;;;3.57;1.30;;;9.00;99.90;;;;;;5098378;28;20228;-68
2021/04/12 14:04:38;;;;;;;1.97;1.20;;;9.00;99.90;;;;;;5101649;28;20299;-69
2021/04/12 14:07:17;;;;;;;1.33;1.10;;;9.00;99.90;;;;;;5105858;28;20272;-69
2021/04/12 14:09:51;;;;;;;1.55;1.17;;;8.90;99.90;;;;;;5108314;27;20431;-70
2021/04/12 14:12:27;;;;;;;1.33;0.97;;;8.80;99.90;;;;;;5105721;27;20207;-68
2021/04/12 14:14:57;;;;;;;1.00;1.00;;;8.80;99.90;;;;;;5112500;27;20233;-68
2021/04/12 14:17:28;;;;;;;2.17;1.00;;;8.80;99.90;;;;;;5113446;27;20206;-69
2021/04/12 14:20:07;;;;;;;1.23;1.13;;;8.70;99.90;;;;;;5113483;27;20232;-68
2021/04/12 14:22:43;;;;;;;1.80;1.40;;;8.80;99.90;;;;;;5116253;27;20253;-68
2021/04/12 14:25:18;;;;;;;1.23;1.10;;;8.70;99.90;;;;;;5111567;27;20195;-68
2021/04/12 14:27:46;;;;;;;1.47;1.00;;;8.70;99.90;;;;;;5114606;27;20298;-68
2021/04/12 14:30:19;;;;;;;2.53;1.17;;;8.70;99.90;;;;;;5110511;27;20261;-69
2021/04/12 14:32:48;;;;;;;2.67;1.23;;;8.70;99.90;;;;;;5111718;27;20187;-69
2021/04/12 14:35:23;;;;;;;3.67;1.60;;;8.70;99.90;;;;;;5109267;27;20196;-68
2021/04/12 14:38:03;;;;;;;2.23;1.53;;;8.70;99.90;;;;;;5113161;27;20199;-68